Time;durP1;ratioP1;P1;durP2;ratioP2;P2;SDS_P1;SDS_P2;PMS_P1;PMS_P2;Temp;Humidity;BMP_temperature;BMP_pressure;BME280_temperature;BME280_humidity;BME280_pressure;Samples;Min_cycle;Max_cycle;Signal;HPM_P1;HPM_P2
2021/08/22 00:00:01;;;;;;;26.23;21.98;;;18.20;99.90;;;;;;5060921;28;20115;-63
2021/08/22 00:02:28;;;;;;;26.57;20.43;;;18.20;99.90;;;;;;5050752;28;20054;-63
2021/08/22 00:04:53;;;;;;;24.38;20.55;;;18.20;99.90;;;;;;5056398;28;20045;-63
2021/08/22 00:07:19;;;;;;;26.60;21.38;;;18.20;99.90;;;;;;5052059;28;20037;-63
2021/08/22 00:09:45;;;;;;;24.48;20.98;;;18.10;99.90;;;;;;5059420;28;20420;-63
2021/08/22 00:12:10;;;;;;;23.40;19.85;;;18.10;99.90;;;;;;5051972;28;20053;-63
2021/08/22 00:14:36;;;;;;;23.10;20.20;;;18.10;99.90;;;;;;5062421;28;20052;-63
2021/08/22 00:17:03;;;;;;;25.52;20.35;;;18.10;99.90;;;;;;5050999;28;20049;-63
2021/08/22 00:19:29;;;;;;;25.08;20.40;;;18.10;99.90;;;;;;5057935;28;20105;-63
2021/08/22 00:21:55;;;;;;;26.45;21.45;;;18.10;99.90;;;;;;5051582;28;20055;-63
2021/08/22 00:24:20;;;;;;;26.10;20.33;;;18.10;99.90;;;;;;5055542;28;20056;-63
2021/08/22 00:26:46;;;;;;;23.92;20.17;;;18.00;99.90;;;;;;5053471;28;20056;-62
2021/08/22 00:29:12;;;;;;;27.23;21.10;;;18.10;99.90;;;;;;5052701;28;20061;-63
2021/08/22 00:31:38;;;;;;;23.77;20.10;;;18.00;99.90;;;;;;5055172;28;20072;-62
2021/08/22 00:34:03;;;;;;;22.20;19.77;;;18.00;99.90;;;;;;5050489;28;20048;-62
2021/08/22 00:36:30;;;;;;;22.33;19.75;;;18.00;99.90;;;;;;5061567;28;20075;-63
2021/08/22 00:39:03;;;;;;;30.88;22.13;;;18.00;99.90;;;;;;5055581;28;20037;-63
2021/08/22 00:41:30;;;;;;;21.48;18.60;;;18.00;99.90;;;;;;5061267;28;20033;-63
2021/08/22 00:43:56;;;;;;;24.08;19.70;;;18.00;99.90;;;;;;5056668;28;20045;-63
2021/08/22 00:46:22;;;;;;;24.90;19.65;;;18.00;99.90;;;;;;5054852;28;20127;-63
2021/08/22 00:48:48;;;;;;;23.52;20.30;;;18.00;99.90;;;;;;5058747;28;20041;-63
2021/08/22 00:51:17;;;;;;;22.55;19.48;;;18.00;99.90;;;;;;5053303;28;20390;-64
2021/08/22 00:53:47;;;;;;;23.17;20.20;;;18.00;99.90;;;;;;5063765;28;20140;-62
2021/08/22 00:56:15;;;;;;;23.65;19.02;;;17.90;99.90;;;;;;5062024;28;20222;-63
2021/08/22 00:58:41;;;;;;;25.17;19.92;;;17.90;99.90;;;;;;5062702;28;20053;-62
2021/08/22 01:01:17;;;;;;;23.77;18.77;;;18.00;99.90;;;;;;5062771;28;20457;-62
2021/08/22 01:04:00;;;;;;;25.40;20.17;;;18.00;99.90;;;;;;5060949;28;20041;-62
2021/08/22 01:06:31;;;;;;;23.77;18.90;;;18.00;99.90;;;;;;5060105;28;20048;-63
2021/08/22 01:09:02;;;;;;;22.35;18.83;;;18.00;99.90;;;;;;5061983;28;20044;-63
2021/08/22 01:11:32;;;;;;;22.55;17.65;;;18.10;99.90;;;;;;5060091;28;20109;-62
2021/08/22 01:14:02;;;;;;;19.98;17.88;;;18.00;99.90;;;;;;5059958;28;20511;-63
2021/08/22 01:16:35;;;;;;;22.10;19.48;;;18.10;99.90;;;;;;5060258;28;20049;-63
2021/08/22 01:19:16;;;;;;;23.35;19.05;;;18.00;99.90;;;;;;5058851;28;20056;-63
2021/08/22 01:21:42;;;;;;;22.27;19.50;;;18.00;99.90;;;;;;5057600;28;20045;-63
2021/08/22 01:24:09;;;;;;;21.73;19.33;;;18.00;99.90;;;;;;5058328;28;20129;-63
2021/08/22 01:26:39;;;;;;;26.35;20.05;;;18.00;99.90;;;;;;5058728;28;20053;-63
2021/08/22 01:29:06;;;;;;;22.48;19.95;;;18.00;99.90;;;;;;5055886;28;20045;-63
2021/08/22 01:31:44;;;;;;;23.38;20.58;;;17.90;99.90;;;;;;5059546;28;20056;-62
2021/08/22 01:34:10;;;;;;;26.40;19.88;;;17.90;99.90;;;;;;5055214;28;20045;-62
2021/08/22 01:36:38;;;;;;;23.60;20.13;;;17.90;99.90;;;;;;5058832;28;20041;-62
2021/08/22 01:39:05;;;;;;;23.63;19.67;;;17.80;99.90;;;;;;5053112;28;20046;-63
2021/08/22 01:41:31;;;;;;;27.53;21.60;;;17.80;99.90;;;;;;5060082;28;20049;-63
2021/08/22 01:43:58;;;;;;;26.83;20.27;;;17.80;99.90;;;;;;5052514;28;20362;-62
2021/08/22 01:46:38;;;;;;;24.25;21.15;;;17.70;99.90;;;;;;5058743;28;20052;-62
2021/08/22 01:49:07;;;;;;;26.52;22.45;;;17.70;99.90;;;;;;5059756;28;20049;-62
2021/08/22 01:51:33;;;;;;;23.20;20.75;;;17.70;99.90;;;;;;5053803;28;20064;-62
2021/08/22 01:54:01;;;;;;;23.00;20.42;;;17.70;99.90;;;;;;5064262;28;20101;-62
2021/08/22 01:56:28;;;;;;;24.13;21.35;;;17.70;99.90;;;;;;5060289;28;20041;-62
2021/08/22 01:58:54;;;;;;;24.23;20.92;;;17.70;99.90;;;;;;5060122;28;20045;-62
2021/08/22 02:01:20;;;;;;;23.65;19.48;;;17.70;99.90;;;;;;5051754;28;20170;-62
2021/08/22 02:03:51;;;;;;;26.92;21.60;;;17.70;99.90;;;;;;5062555;28;20450;-62
2021/08/22 02:06:47;;;;;;;27.58;20.45;;;17.70;99.90;;;;;;5061135;28;20109;-62
2021/08/22 02:09:13;;;;;;;23.73;20.50;;;17.70;99.90;;;;;;5064182;28;20041;-62
2021/08/22 02:11:48;;;;;;;23.48;20.55;;;17.70;99.90;;;;;;5058836;28;20183;-62
2021/08/22 02:14:14;;;;;;;26.35;22.38;;;17.60;99.90;;;;;;5062613;28;20072;-62
2021/08/22 02:16:53;;;;;;;24.60;20.60;;;17.70;99.90;;;;;;5058893;28;20045;-62
2021/08/22 02:19:20;;;;;;;24.52;20.13;;;17.60;99.90;;;;;;5061512;28;20045;-62
2021/08/22 02:21:47;;;;;;;24.67;20.08;;;17.60;99.90;;;;;;5057583;28;20072;-62
2021/08/22 02:24:13;;;;;;;25.58;20.25;;;17.60;99.90;;;;;;5059399;28;20048;-62
2021/08/22 02:26:38;;;;;;;22.92;19.90;;;17.60;99.90;;;;;;5059007;28;20041;-62
2021/08/22 02:29:05;;;;;;;25.92;21.67;;;17.50;99.90;;;;;;5056539;28;20033;-62
2021/08/22 02:31:31;;;;;;;22.42;19.98;;;17.50;99.90;;;;;;5060352;28;20072;-62
2021/08/22 02:33:58;;;;;;;24.77;21.13;;;17.50;99.90;;;;;;5054754;28;20037;-62
2021/08/22 02:36:25;;;;;;;24.95;20.13;;;17.50;99.90;;;;;;5060509;28;20048;-62
2021/08/22 02:38:51;;;;;;;24.92;20.60;;;17.50;99.90;;;;;;5053771;28;20047;-62
2021/08/22 02:41:17;;;;;;;24.08;20.65;;;17.60;99.90;;;;;;5060211;28;20064;-62
2021/08/22 02:43:43;;;;;;;26.85;20.33;;;17.60;99.90;;;;;;5052917;28;20120;-62
2021/08/22 02:46:09;;;;;;;25.08;20.77;;;17.70;99.90;;;;;;5059403;28;20045;-60
2021/08/22 02:48:35;;;;;;;26.15;22.25;;;17.70;99.90;;;;;;5062439;28;20128;-62
2021/08/22 02:51:01;;;;;;;22.10;19.67;;;17.80;99.90;;;;;;5054250;28;20049;-62
2021/08/22 02:53:27;;;;;;;25.20;21.00;;;17.80;99.90;;;;;;5059748;28;20045;-62
2021/08/22 02:55:53;;;;;;;25.27;21.40;;;17.80;99.90;;;;;;5064878;28;20404;-62
2021/08/22 02:58:20;;;;;;;26.02;21.88;;;17.80;99.90;;;;;;5058796;28;20041;-62
2021/08/22 03:00:45;;;;;;;25.80;22.95;;;17.80;99.90;;;;;;5062221;28;20076;-62
2021/08/22 03:03:11;;;;;;;26.30;21.45;;;17.90;99.90;;;;;;5056520;28;20052;-62
2021/08/22 03:05:37;;;;;;;27.23;21.67;;;17.90;99.90;;;;;;5070815;28;20141;-62
2021/08/22 03:08:04;;;;;;;25.50;21.77;;;17.90;99.90;;;;;;5062593;28;20079;-61
2021/08/22 03:10:30;;;;;;;27.17;22.13;;;17.90;99.90;;;;;;5055569;28;20055;-61
2021/08/22 03:12:56;;;;;;;31.80;23.80;;;17.80;99.90;;;;;;5071159;28;20310;-61
2021/08/22 03:15:22;;;;;;;28.00;23.65;;;17.80;99.90;;;;;;5055839;28;20049;-61
2021/08/22 03:17:48;;;;;;;31.48;25.33;;;17.80;99.90;;;;;;5064367;28;20067;-61
2021/08/22 03:20:14;;;;;;;29.67;24.90;;;17.70;99.90;;;;;;5056493;28;20045;-61
2021/08/22 03:22:44;;;;;;;28.23;23.98;;;17.70;99.90;;;;;;5066460;28;20051;-61
2021/08/22 03:25:11;;;;;;;34.13;27.17;;;17.70;99.90;;;;;;5081991;28;20040;-61
2021/08/22 03:27:37;;;;;;;;;;;17.60;99.90;;;;;;5061775;28;20036;-61
2021/08/22 03:30:04;;;;;;;35.13;26.92;;;17.60;99.90;;;;;;5080208;28;19920;-61
2021/08/22 03:32:30;;;;;;;31.20;26.77;;;17.50;99.90;;;;;;5064112;28;20075;-62
2021/08/22 03:34:57;;;;;;;31.90;27.13;;;17.50;99.90;;;;;;5068554;28;20079;-61
2021/08/22 03:37:23;;;;;;;37.92;29.33;;;17.50;99.90;;;;;;5064141;28;20045;-61
2021/08/22 03:39:49;;;;;;;33.40;27.67;;;17.50;99.90;;;;;;5076140;28;20095;-62
2021/08/22 03:42:15;;;;;;;37.85;29.90;;;17.50;99.90;;;;;;5066562;28;20064;-61
2021/08/22 03:44:41;;;;;;;39.25;30.52;;;17.40;99.90;;;;;;5070666;28;20068;-62
2021/08/22 03:47:07;;;;;;;36.30;28.77;;;17.40;99.90;;;;;;5069134;28;20041;-62
2021/08/22 03:49:34;;;;;;;36.72;29.85;;;17.40;99.90;;;;;;5065573;28;20045;-62
2021/08/22 03:52:00;;;;;;;40.08;29.65;;;17.40;99.90;;;;;;5070324;28;20094;-62
2021/08/22 03:54:26;;;;;;;40.15;28.77;;;17.30;99.90;;;;;;5048534;28;20041;-62
2021/08/22 03:56:52;;;;;;;32.80;28.25;;;17.30;99.90;;;;;;5045291;28;20507;-62
2021/08/22 03:59:18;;;;;;;39.00;30.95;;;17.30;99.90;;;;;;5058763;28;20049;-62
2021/08/22 04:01:44;;;;;;;45.25;33.08;;;17.30;99.90;;;;;;5071837;28;20137;-62
2021/08/22 04:04:10;;;;;;;39.60;31.20;;;17.30;99.90;;;;;;5057785;28;20049;-61
2021/08/22 04:06:37;;;;;;;39.25;30.35;;;17.30;99.90;;;;;;5072044;28;20056;-61
2021/08/22 04:09:04;;;;;;;43.33;30.38;;;17.30;99.90;;;;;;5066812;28;20040;-61
2021/08/22 04:11:30;;;;;;;44.55;31.48;;;17.30;99.90;;;;;;5067101;28;20100;-62
2021/08/22 04:14:02;;;;;;;38.85;30.80;;;17.30;99.90;;;;;;5052490;28;20079;-62
2021/08/22 04:16:28;;;;;;;47.85;33.17;;;17.20;99.90;;;;;;5065899;28;20048;-61
2021/08/22 04:18:53;;;;;;;37.97;30.88;;;17.20;99.90;;;;;;5079115;28;20564;-61
2021/08/22 04:21:19;;;;;;;37.88;32.05;;;17.20;99.90;;;;;;5063743;28;20032;-61
2021/08/22 04:23:45;;;;;;;43.28;32.67;;;17.10;99.90;;;;;;5066753;28;20044;-61
2021/08/22 04:26:11;;;;;;;42.47;34.13;;;17.10;99.90;;;;;;5056871;28;20091;-61
2021/08/22 04:28:37;;;;;;;44.65;33.38;;;17.10;99.90;;;;;;5077656;28;20446;-62
2021/08/22 04:31:03;;;;;;;45.90;35.20;;;17.00;99.90;;;;;;5063801;28;20072;-61
2021/08/22 04:33:29;;;;;;;46.78;35.95;;;17.10;99.90;;;;;;5065384;28;20075;-62
2021/08/22 04:35:55;;;;;;;51.38;38.00;;;17.00;99.90;;;;;;5058850;28;20076;-61
2021/08/22 04:38:21;;;;;;;58.47;40.80;;;17.00;99.90;;;;;;5065737;28;20052;-61
2021/08/22 04:40:47;;;;;;;55.45;40.75;;;17.00;99.90;;;;;;5055365;28;20124;-61
2021/08/22 04:43:13;;;;;;;53.92;38.67;;;17.00;99.90;;;;;;5060920;28;20043;-61
2021/08/22 04:45:38;;;;;;;62.08;41.08;;;16.90;99.90;;;;;;5053891;28;20052;-61
2021/08/22 04:48:04;;;;;;;67.75;44.00;;;16.90;99.90;;;;;;5062053;28;20048;-61
2021/08/22 04:50:30;;;;;;;70.25;44.25;;;16.90;99.90;;;;;;5061024;28;20051;-62
2021/08/22 04:52:56;;;;;;;69.85;44.63;;;16.90;99.90;;;;;;5068855;28;20082;-62
2021/08/22 04:55:22;;;;;;;64.50;43.30;;;16.90;99.90;;;;;;5084560;28;20045;-62
2021/08/22 04:57:48;;;;;;;71.47;46.05;;;16.80;99.90;;;;;;5069639;28;20076;-62
2021/08/22 05:00:15;;;;;;;73.40;47.08;;;16.80;99.90;;;;;;5082724;28;20412;-62
2021/08/22 05:02:41;;;;;;;72.45;46.42;;;16.80;99.90;;;;;;5068270;28;20045;-62
2021/08/22 05:05:07;;;;;;;72.63;49.45;;;16.80;99.90;;;;;;5081382;28;20435;-63
2021/08/22 05:07:32;;;;;;;84.95;50.08;;;16.70;99.90;;;;;;5065514;28;20042;-64
2021/08/22 05:09:59;;;;;;;80.25;49.90;;;16.70;99.90;;;;;;5062344;28;20073;-64
2021/08/22 05:12:25;;;;;;;75.95;48.38;;;16.70;99.90;;;;;;5078213;28;20075;-64
2021/08/22 05:14:51;;;;;;;92.45;55.67;;;16.70;99.90;;;;;;5065775;28;20095;-64
2021/08/22 05:17:17;;;;;;;74.70;49.85;;;16.60;99.90;;;;;;5077192;28;20443;-65
2021/08/22 05:19:43;;;;;;;84.00;52.10;;;16.60;99.90;;;;;;5066641;28;20042;-65
2021/08/22 05:22:09;;;;;;;78.63;51.80;;;16.60;99.90;;;;;;5076201;28;20127;-64
2021/08/22 05:24:34;;;;;;;77.10;47.38;;;16.60;99.90;;;;;;5077633;28;20084;-65
2021/08/22 05:27:00;;;;;;;87.78;51.70;;;16.60;99.90;;;;;;5069573;28;20043;-65
2021/08/22 05:29:27;;;;;;;75.20;50.28;;;16.60;99.90;;;;;;5063229;28;20457;-65
2021/08/22 05:31:53;;;;;;;83.38;50.78;;;16.60;99.90;;;;;;5068172;28;20040;-65
2021/08/22 05:34:18;;;;;;;86.72;49.17;;;16.60;99.90;;;;;;5067152;28;20063;-65
2021/08/22 05:36:44;;;;;;;79.00;50.30;;;16.50;99.90;;;;;;5064834;28;20543;-65
2021/08/22 05:39:11;;;;;;;75.03;47.03;;;16.50;99.90;;;;;;5080045;28;20040;-65
2021/08/22 05:41:37;;;;;;;63.78;42.63;;;16.50;99.90;;;;;;5055453;28;20072;-65
2021/08/22 05:44:04;;;;;;;58.67;38.90;;;16.50;99.90;;;;;;5077320;28;20056;-66
2021/08/22 05:46:32;;;;;;;65.00;43.42;;;16.60;99.90;;;;;;5062349;28;20040;-66
2021/08/22 05:48:58;;;;;;;62.67;42.20;;;16.60;99.90;;;;;;5075694;28;20064;-66
2021/08/22 05:51:23;;;;;;;67.53;44.72;;;16.60;99.90;;;;;;5059716;28;20055;-65
2021/08/22 05:53:50;;;;;;;60.63;40.20;;;16.60;99.90;;;;;;5061844;28;20044;-66
2021/08/22 05:56:17;;;;;;;58.78;40.45;;;16.50;99.90;;;;;;5052869;28;20099;-66
2021/08/22 05:58:44;;;;;;;70.25;43.28;;;16.60;99.90;;;;;;5068810;28;20049;-66
2021/08/22 06:01:13;;;;;;;63.67;40.47;;;16.60;99.90;;;;;;5056821;28;20093;-65
2021/08/22 06:03:40;;;;;;;62.00;41.33;;;16.60;99.90;;;;;;5067201;28;20045;-65
2021/08/22 06:06:07;;;;;;;68.07;43.75;;;16.60;99.90;;;;;;5069455;28;20045;-65
2021/08/22 06:08:34;;;;;;;66.30;41.00;;;16.60;99.90;;;;;;5059653;28;20070;-65
2021/08/22 06:10:59;;;;;;;70.03;42.90;;;16.60;99.90;;;;;;5074750;28;20052;-65
2021/08/22 06:13:26;;;;;;;75.55;43.92;;;16.60;99.90;;;;;;5060296;28;20366;-65
2021/08/22 06:15:51;;;;;;;72.30;43.30;;;16.60;99.90;;;;;;5073179;28;20049;-65
2021/08/22 06:18:17;;;;;;;76.95;46.05;;;16.60;99.90;;;;;;5059812;28;20164;-64
2021/08/22 06:20:46;;;;;;;70.72;44.90;;;16.60;99.90;;;;;;5069780;28;20052;-64
2021/08/22 06:23:12;;;;;;;78.80;47.35;;;16.60;99.90;;;;;;5062004;28;20041;-65
2021/08/22 06:25:38;;;;;;;81.35;48.05;;;16.60;99.90;;;;;;5059312;28;20081;-64
2021/08/22 06:28:04;;;;;;;59.08;39.53;;;16.60;99.90;;;;;;5083323;28;20055;-65
2021/08/22 06:30:30;;;;;;;73.55;44.65;;;16.60;99.90;;;;;;5068352;28;20455;-65
2021/08/22 06:32:57;;;;;;;78.20;46.33;;;16.60;99.90;;;;;;5082572;28;20098;-65
2021/08/22 06:35:22;;;;;;;65.85;43.88;;;16.70;99.90;;;;;;5067005;28;20493;-65
2021/08/22 06:37:49;;;;;;;53.47;39.03;;;16.60;99.90;;;;;;5080817;28;20055;-64
2021/08/22 06:40:14;;;;;;;70.30;44.28;;;16.70;99.90;;;;;;5069421;28;20038;-65
2021/08/22 06:42:40;;;;;;;71.82;44.05;;;16.70;99.90;;;;;;5064677;28;20063;-65
2021/08/22 06:45:07;;;;;;;53.92;38.92;;;16.70;99.90;;;;;;5072068;28;20049;-66
2021/08/22 06:47:33;;;;;;;51.28;37.92;;;16.70;99.90;;;;;;5070243;28;20045;-66
2021/08/22 06:49:58;;;;;;;54.60;40.25;;;16.60;99.90;;;;;;5074514;28;20098;-66
2021/08/22 06:52:25;;;;;;;39.47;30.17;;;16.70;99.90;;;;;;5063934;28;20048;-66
2021/08/22 06:54:50;;;;;;;44.35;35.53;;;16.60;99.90;;;;;;5074455;28;20037;-66
2021/08/22 06:57:17;;;;;;;50.75;37.88;;;16.60;99.90;;;;;;5062735;28;20049;-66
2021/08/22 06:59:43;;;;;;;42.42;33.65;;;16.60;99.90;;;;;;5076139;28;20066;-66
2021/08/22 07:02:10;;;;;;;33.17;26.25;;;16.60;99.90;;;;;;5061465;28;20403;-66
2021/08/22 07:04:36;;;;;;;39.05;30.15;;;16.60;99.90;;;;;;5074466;28;20040;-66
2021/08/22 07:07:03;;;;;;;28.73;23.98;;;16.50;99.90;;;;;;5055721;28;20048;-66
2021/08/22 07:09:29;;;;;;;26.42;20.98;;;16.50;99.90;;;;;;5065128;28;20105;-66
2021/08/22 07:11:54;;;;;;;28.58;22.23;;;16.50;99.90;;;;;;5078399;28;20091;-66
2021/08/22 07:14:23;;;;;;;25.27;22.58;;;16.50;99.90;;;;;;5063852;28;20047;-66
2021/08/22 07:16:49;;;;;;;29.35;21.05;;;16.50;99.90;;;;;;5075259;28;20044;-65
2021/08/22 07:19:15;;;;;;;25.73;20.75;;;16.50;99.90;;;;;;5060778;28;20044;-65
2021/08/22 07:21:41;;;;;;;34.05;23.52;;;16.50;99.90;;;;;;5073254;28;20051;-65
2021/08/22 07:24:07;;;;;;;26.98;22.38;;;16.50;99.90;;;;;;5053846;28;20068;-65
2021/08/22 07:26:33;;;;;;;27.00;21.25;;;16.50;99.90;;;;;;5069964;28;20464;-65
2021/08/22 07:28:59;;;;;;;33.63;26.55;;;16.50;99.90;;;;;;5057379;28;20040;-66
2021/08/22 07:31:25;;;;;;;32.05;24.73;;;16.50;99.90;;;;;;5071034;28;20056;-65
2021/08/22 07:33:51;;;;;;;38.13;26.85;;;16.60;99.90;;;;;;5056608;28;20384;-65
2021/08/22 07:36:16;;;;;;;36.60;25.05;;;16.60;99.90;;;;;;5069028;28;20032;-65
2021/08/22 07:38:42;;;;;;;32.13;24.27;;;16.60;99.90;;;;;;5070571;28;20044;-65
2021/08/22 07:41:12;;;;;;;32.97;25.77;;;16.70;99.90;;;;;;5067148;28;20044;-65
2021/08/22 07:43:42;;;;;;;34.22;25.42;;;16.70;99.90;;;;;;5081855;28;20048;-65
2021/08/22 07:46:08;;;;;;;30.15;22.92;;;16.70;99.90;;;;;;5066863;28;20070;-65
2021/08/22 07:48:34;;;;;;;37.67;25.63;;;16.80;99.90;;;;;;5080389;28;20045;-64
2021/08/22 07:50:59;;;;;;;26.15;19.80;;;16.70;99.90;;;;;;5065045;28;20052;-64
2021/08/22 07:53:25;;;;;;;24.58;19.15;;;16.80;99.90;;;;;;5078818;28;20037;-64
2021/08/22 07:55:51;;;;;;;26.77;19.80;;;16.80;99.90;;;;;;5063934;28;20052;-64
2021/08/22 07:58:17;;;;;;;21.67;14.90;;;16.70;99.90;;;;;;5071887;28;20069;-64
2021/08/22 08:00:43;;;;;;;25.88;19.75;;;16.70;99.90;;;;;;5064242;28;20480;-64
2021/08/22 08:03:10;;;;;;;24.25;19.17;;;16.70;99.90;;;;;;5075001;28;20047;-64
2021/08/22 08:05:36;;;;;;;32.97;21.90;;;16.70;99.90;;;;;;5064416;28;20508;-65
2021/08/22 08:08:02;;;;;;;22.17;16.75;;;16.70;99.90;;;;;;5075300;28;20041;-65
2021/08/22 08:10:28;;;;;;;25.40;19.05;;;16.70;99.90;;;;;;5079472;28;20500;-64
2021/08/22 08:12:54;;;;;;;29.45;19.40;;;16.70;99.90;;;;;;5068422;28;20056;-65
2021/08/22 08:15:22;;;;;;;23.98;17.73;;;16.70;99.90;;;;;;5079029;28;20506;-64
2021/08/22 08:17:48;;;;;;;25.70;18.77;;;16.70;99.90;;;;;;5079952;28;20049;-64
2021/08/22 08:20:14;;;;;;;28.92;19.55;;;16.70;99.90;;;;;;5073235;28;20041;-65
2021/08/22 08:22:40;;;;;;;31.88;19.58;;;16.70;99.90;;;;;;5078623;28;20068;-65
2021/08/22 08:25:07;;;;;;;25.42;18.48;;;16.80;99.90;;;;;;5069903;28;20041;-65
2021/08/22 08:27:34;;;;;;;24.33;18.88;;;16.80;99.90;;;;;;5080669;28;20044;-66
2021/08/22 08:30:00;;;;;;;24.02;18.80;;;16.70;99.90;;;;;;5068532;28;20037;-65
2021/08/22 08:32:26;;;;;;;23.45;18.00;;;16.70;99.90;;;;;;5079802;28;20080;-65
2021/08/22 08:34:52;;;;;;;33.58;21.25;;;16.70;99.90;;;;;;5067251;28;20063;-65
2021/08/22 08:37:19;;;;;;;22.48;18.02;;;16.80;99.90;;;;;;5079691;28;20053;-65
2021/08/22 08:39:45;;;;;;;25.73;19.10;;;16.70;99.90;;;;;;5065968;28;20462;-66
2021/08/22 08:42:21;;;;;;;23.73;17.58;;;16.70;99.90;;;;;;5078735;28;20410;-65
2021/08/22 08:44:57;;;;;;;27.55;19.67;;;16.70;99.90;;;;;;5064596;28;20048;-65
2021/08/22 08:47:31;;;;;;;32.33;20.88;;;16.80;99.90;;;;;;5077581;28;20541;-64
2021/08/22 08:50:24;;;;;;;26.20;18.83;;;16.80;99.90;;;;;;5056407;28;20067;-64
2021/08/22 08:53:04;;;;;;;21.17;16.40;;;16.80;99.90;;;;;;5054281;28;20079;-64
2021/08/22 08:55:40;;;;;;;19.88;15.45;;;16.80;99.90;;;;;;5072404;28;20057;-64
2021/08/22 08:58:05;;;;;;;28.77;19.60;;;16.80;99.90;;;;;;5084366;28;20040;-64
2021/08/22 09:00:36;;;;;;;19.58;14.55;;;16.80;99.90;;;;;;5077888;28;20072;-64
2021/08/22 09:03:03;;;;;;;19.80;15.73;;;16.80;99.90;;;;;;5076933;28;20048;-65
2021/08/22 09:06:07;;;;;;;18.67;14.70;;;16.80;99.90;;;;;;5074466;28;20156;-64
2021/08/22 09:09:10;;;;;;;24.23;17.88;;;16.80;99.90;;;;;;5059642;28;20075;-65
2021/08/22 09:12:04;;;;;;;25.30;19.25;;;16.80;99.90;;;;;;5066720;28;20114;-64
2021/08/22 09:15:00;;;;;;;32.08;19.67;;;16.80;99.90;;;;;;5061119;28;20053;-64
2021/08/22 09:18:21;;;;;;;19.33;13.90;;;16.90;99.90;;;;;;5067507;28;20044;-65
2021/08/22 09:21:23;;;;;;;23.73;19.52;;;16.90;99.90;;;;;;5009774;28;20469;-64
2021/08/22 09:24:27;;;;;;;21.17;14.32;;;16.90;99.90;;;;;;5004446;28;20046;-65
2021/08/22 09:27:17;;;;;;;20.80;16.52;;;16.90;99.90;;;;;;5004414;28;20051;-65
2021/08/22 09:30:30;;;;;;;23.60;18.08;;;16.90;99.90;;;;;;5005441;28;20078;-64
2021/08/22 09:33:34;;;;;;;19.52;15.77;;;17.00;99.90;;;;;;4984064;28;20046;-64
2021/08/22 09:36:24;;;;;;;20.45;15.18;;;17.00;99.90;;;;;;4982936;28;20055;-64
2021/08/22 09:39:11;;;;;;;18.63;16.63;;;17.00;99.90;;;;;;4984217;28;20050;-64
2021/08/22 09:42:08;;;;;;;17.30;15.00;;;17.20;99.90;;;;;;4983930;28;20075;-65
2021/08/22 09:45:04;;;;;;;19.80;16.75;;;17.30;99.90;;;;;;4984095;28;20241;-64
2021/08/22 09:48:07;;;;;;;17.52;15.02;;;17.50;99.90;;;;;;4980000;28;20063;-64
2021/08/22 09:51:07;;;;;;;18.10;14.93;;;17.60;99.90;;;;;;4976138;28;20078;-64
2021/08/22 09:54:06;;;;;;;13.73;12.20;;;17.80;99.90;;;;;;4983994;28;20046;-64
2021/08/22 09:57:09;;;;;;;13.40;12.00;;;18.20;99.90;;;;;;5023164;28;20065;-63
2021/08/22 10:00:12;;;;;;;10.50;8.77;;;18.50;99.90;;;;;;5016089;28;20539;-64
2021/08/22 10:02:49;;;;;;;10.00;9.10;;;18.70;99.90;;;;;;5026961;28;20192;-64
2021/08/22 10:05:33;;;;;;;10.68;9.52;;;18.80;99.90;;;;;;5026997;28;20053;-64
2021/08/22 10:08:29;;;;;;;9.73;8.73;;;18.90;99.90;;;;;;5021847;28;20042;-64
2021/08/22 10:11:01;;;;;;;11.70;10.27;;;19.00;99.90;;;;;;5058974;28;20049;-64
2021/08/22 10:13:27;;;;;;;11.93;10.60;;;19.10;99.90;;;;;;5064438;28;20045;-64
2021/08/22 10:15:53;;;;;;;11.10;9.75;;;19.10;99.90;;;;;;5071967;28;20045;-63
2021/08/22 10:18:24;;;;;;;11.60;10.38;;;18.90;99.90;;;;;;5060261;28;20061;-63
2021/08/22 10:20:51;;;;;;;13.10;9.85;;;18.70;99.90;;;;;;5045348;28;20090;-64
2021/08/22 10:23:38;;;;;;;11.82;10.20;;;18.60;99.90;;;;;;5058690;28;20045;-64
2021/08/22 10:26:05;;;;;;;12.63;11.23;;;18.50;99.90;;;;;;5052571;28;20040;-64
2021/08/22 10:28:49;;;;;;;15.13;12.80;;;18.40;99.90;;;;;;5057735;28;20128;-64
2021/08/22 10:32:04;;;;;;;13.52;11.02;;;18.40;99.90;;;;;;5061313;28;20047;-64
2021/08/22 10:34:34;;;;;;;15.45;12.13;;;18.30;99.90;;;;;;5058593;28;20049;-64
2021/08/22 10:37:24;;;;;;;13.23;11.82;;;18.30;99.90;;;;;;5080464;28;20044;-64
2021/08/22 10:39:50;;;;;;;17.55;14.30;;;18.40;99.90;;;;;;5066529;28;20045;-64
2021/08/22 10:42:20;;;;;;;14.90;13.10;;;18.50;99.90;;;;;;5079301;28;20397;-64
2021/08/22 10:44:46;;;;;;;17.98;13.68;;;18.50;99.90;;;;;;5064120;28;20105;-64
2021/08/22 10:47:21;;;;;;;18.30;14.68;;;18.60;99.90;;;;;;5064573;28;20179;-64
2021/08/22 10:49:53;;;;;;;20.17;17.58;;;18.50;99.90;;;;;;5051684;28;20053;-65
2021/08/22 10:52:22;;;;;;;22.45;18.60;;;18.60;99.90;;;;;;5073376;28;20052;-64
2021/08/22 10:55:05;;;;;;;41.65;18.52;;;18.70;99.90;;;;;;5059103;28;20052;-66
2021/08/22 11:00:29;;;;;;;8.75;7.22;;;18.30;99.90;;;;;;5059694;28;20049;-66
2021/08/22 11:02:54;;;;;;;22.35;15.15;;;17.70;99.90;;;;;;5059718;28;20408;-65
2021/08/22 11:05:22;;;;;;;21.85;15.18;;;17.70;99.90;;;;;;5082437;28;20127;-65
2021/08/22 11:07:51;;;;;;;;;;;17.70;99.90;;;;;;5062929;28;20044;-66
2021/08/22 11:10:20;;;;;;;37.83;22.27;;;17.70;99.90;;;;;;5079173;28;19931;-66
2021/08/22 11:12:46;;;;;;;30.30;20.13;;;17.70;99.90;;;;;;5074120;28;20045;-67
2021/08/22 11:15:27;;;;;;;21.60;15.20;;;17.90;99.90;;;;;;5076921;28;20044;-66
2021/08/22 11:18:04;;;;;;;14.63;11.55;;;18.10;99.90;;;;;;5062044;28;20051;-67
2021/08/22 11:20:31;;;;;;;11.07;9.93;;;18.10;99.90;;;;;;5074550;28;20048;-67
2021/08/22 11:23:06;;;;;;;9.20;8.18;;;18.10;99.90;;;;;;5052450;28;20087;-66
2021/08/22 11:25:34;;;;;;;8.65;7.75;;;18.30;99.90;;;;;;5089359;28;20044;-67
2021/08/22 11:28:14;;;;;;;8.25;7.25;;;18.40;99.90;;;;;;5059184;28;20044;-67
2021/08/22 11:30:41;;;;;;;6.75;5.80;;;18.50;99.90;;;;;;5057952;28;20103;-66
2021/08/22 11:33:08;;;;;;;8.75;7.47;;;18.50;99.90;;;;;;5044028;28;20056;-66
2021/08/22 11:35:39;;;;;;;8.23;7.43;;;18.60;99.90;;;;;;5072504;28;20051;-66
2021/08/22 11:38:05;;;;;;;9.07;7.95;;;18.80;99.90;;;;;;5062294;28;20049;-67
2021/08/22 11:40:33;;;;;;;10.00;8.63;;;19.00;99.90;;;;;;5069936;28;20063;-66
2021/08/22 11:43:01;;;;;;;11.10;10.00;;;18.90;99.90;;;;;;5082170;28;20044;-66
2021/08/22 11:45:30;;;;;;;13.48;11.18;;;19.10;99.90;;;;;;5068206;28;20108;-66
2021/08/22 11:47:57;;;;;;;12.02;10.55;;;19.00;99.90;;;;;;5076695;28;20048;-66
2021/08/22 11:50:28;;;;;;;6.63;4.93;;;19.00;99.90;;;;;;5061911;28;20044;-66
2021/08/22 11:52:56;;;;;;;7.15;6.25;;;18.90;99.90;;;;;;5066996;28;20302;-66
2021/08/22 11:55:26;;;;;;;7.10;6.40;;;18.90;99.90;;;;;;5074249;28;20527;-66
2021/08/22 11:58:19;;;;;;;21.45;7.72;;;18.90;99.90;;;;;;5078351;28;20044;-66
2021/08/22 12:00:47;;;;;;;66.40;8.68;;;19.00;99.90;;;;;;5063521;28;20168;-66
2021/08/22 12:03:16;;;;;;;8.00;5.90;;;18.70;99.90;;;;;;5076657;28;20032;-68
2021/08/22 12:05:53;;;;;;;60.78;13.77;;;18.40;99.90;;;;;;5078608;28;20112;-68
2021/08/22 12:08:19;;;;;;;17.88;8.82;;;18.30;99.90;;;;;;5065936;28;20041;-71
2021/08/22 12:10:45;;;;;;;22.90;12.13;;;18.20;99.90;;;;;;5078488;28;20044;-68
2021/08/22 12:13:19;;;;;;;11.77;10.57;;;18.10;99.90;;;;;;5066766;28;20123;-67
2021/08/22 12:15:47;;;;;;;12.00;8.80;;;18.10;99.90;;;;;;5051572;28;20064;-65
2021/08/22 12:18:13;;;;;;;;;;;18.10;99.90;;;;;;5055004;28;20071;-64
2021/08/22 12:20:40;;;;;;;8.45;7.60;;;18.00;99.90;;;;;;5077429;28;19920;-64
2021/08/22 12:23:10;;;;;;;7.90;6.93;;;18.20;99.90;;;;;;5063759;28;20263;-65
2021/08/22 12:25:37;;;;;;;8.18;6.35;;;18.10;99.90;;;;;;5076987;28;20047;-65
2021/08/22 12:28:23;;;;;;;9.67;6.00;;;18.20;99.90;;;;;;5077502;28;20100;-65
2021/08/22 12:31:05;;;;;;;9.93;5.90;;;18.20;99.90;;;;;;5075065;28;20302;-65
2021/08/22 12:33:31;;;;;;;6.68;5.93;;;18.30;99.90;;;;;;5060987;28;20079;-66
2021/08/22 12:36:05;;;;;;;7.05;6.38;;;18.20;99.90;;;;;;5059393;28;20234;-65
2021/08/22 12:38:55;;;;;;;7.55;6.85;;;18.30;99.90;;;;;;5053698;28;20062;-65
2021/08/22 12:41:46;;;;;;;6.35;5.55;;;18.40;99.90;;;;;;5044323;28;20121;-65
2021/08/22 12:44:23;;;;;;;6.03;4.78;;;18.50;99.90;;;;;;5063145;28;20128;-65
2021/08/22 12:47:00;;;;;;;5.75;5.25;;;18.50;99.90;;;;;;5067222;28;20049;-66
2021/08/22 12:49:27;;;;;;;7.38;6.63;;;18.50;99.90;;;;;;5067792;28;20044;-65